sensor_id;sensor_type;location;lat;lon;timestamp;P1;durP1;ratioP1;P2;durP2;ratioP2
44116;SDS011;29781;49.480;8.512;2023-04-03T00:01:04;4.63;;;2.60;;
44116;SDS011;29781;49.480;8.512;2023-04-03T00:03:30;3.88;;;2.72;;
44116;SDS011;29781;49.480;8.512;2023-04-03T00:05:56;5.57;;;2.30;;
44116;SDS011;29781;49.480;8.512;2023-04-03T00:08:21;2.85;;;2.38;;
44116;SDS011;29781;49.480;8.512;2023-04-03T00:10:47;4.88;;;2.47;;
44116;SDS011;29781;49.480;8.512;2023-04-03T00:13:13;3.05;;;2.08;;
44116;SDS011;29781;49.480;8.512;2023-04-03T00:15:39;2.95;;;2.30;;
44116;SDS011;29781;49.480;8.512;2023-04-03T00:18:05;3.90;;;2.28;;
44116;SDS011;29781;49.480;8.512;2023-04-03T00:20:31;2.63;;;2.20;;
44116;SDS011;29781;49.480;8.512;2023-04-03T00:22:58;5.10;;;2.60;;
44116;SDS011;29781;49.480;8.512;2023-04-03T00:25:23;2.97;;;2.45;;
44116;SDS011;29781;49.480;8.512;2023-04-03T00:27:49;2.90;;;2.58;;
44116;SDS011;29781;49.480;8.512;2023-04-03T00:30:15;3.28;;;2.35;;
44116;SDS011;29781;49.480;8.512;2023-04-03T00:32:43;3.03;;;2.28;;
44116;SDS011;29781;49.480;8.512;2023-04-03T00:35:08;4.13;;;2.53;;
44116;SDS011;29781;49.480;8.512;2023-04-03T00:37:35;2.47;;;1.98;;
44116;SDS011;29781;49.480;8.512;2023-04-03T00:40:00;3.28;;;2.40;;
44116;SDS011;29781;49.480;8.512;2023-04-03T00:42:27;3.85;;;2.50;;
44116;SDS011;29781;49.480;8.512;2023-04-03T00:47:18;3.53;;;2.45;;
44116;SDS011;29781;49.480;8.512;2023-04-03T00:49:44;3.45;;;2.30;;
44116;SDS011;29781;49.480;8.512;2023-04-03T00:52:15;3.35;;;2.55;;
44116;SDS011;29781;49.480;8.512;2023-04-03T00:54:42;4.25;;;2.58;;
44116;SDS011;29781;49.480;8.512;2023-04-03T00:57:10;3.58;;;2.60;;
44116;SDS011;29781;49.480;8.512;2023-04-03T00:59:41;5.15;;;2.60;;
44116;SDS011;29781;49.480;8.512;2023-04-03T01:02:10;3.30;;;2.58;;
44116;SDS011;29781;49.480;8.512;2023-04-03T01:04:37;2.83;;;2.35;;
44116;SDS011;29781;49.480;8.512;2023-04-03T01:07:15;6.95;;;2.53;;
44116;SDS011;29781;49.480;8.512;2023-04-03T01:09:47;5.10;;;3.03;;
44116;SDS011;29781;49.480;8.512;2023-04-03T01:12:22;3.20;;;2.67;;
44116;SDS011;29781;49.480;8.512;2023-04-03T01:14:51;3.00;;;2.70;;
44116;SDS011;29781;49.480;8.512;2023-04-03T01:17:26;4.75;;;3.17;;
44116;SDS011;29781;49.480;8.512;2023-04-03T01:26:02;3.38;;;2.63;;
44116;SDS011;29781;49.480;8.512;2023-04-03T01:28:30;3.78;;;2.03;;
44116;SDS011;29781;49.480;8.512;2023-04-03T01:33:23;2.97;;;2.50;;
44116;SDS011;29781;49.480;8.512;2023-04-03T01:35:49;3.40;;;2.42;;
44116;SDS011;29781;49.480;8.512;2023-04-03T01:38:14;3.58;;;2.63;;
44116;SDS011;29781;49.480;8.512;2023-04-03T01:40:40;4.28;;;2.58;;
44116;SDS011;29781;49.480;8.512;2023-04-03T01:43:06;3.83;;;2.72;;
44116;SDS011;29781;49.480;8.512;2023-04-03T01:45:32;4.38;;;2.67;;
44116;SDS011;29781;49.480;8.512;2023-04-03T01:47:57;3.92;;;2.92;;
44116;SDS011;29781;49.480;8.512;2023-04-03T01:50:23;3.53;;;2.50;;
44116;SDS011;29781;49.480;8.512;2023-04-03T01:52:48;2.72;;;2.53;;
44116;SDS011;29781;49.480;8.512;2023-04-03T01:55:14;2.67;;;2.47;;
44116;SDS011;29781;49.480;8.512;2023-04-03T01:57:40;4.50;;;3.00;;
44116;SDS011;29781;49.480;8.512;2023-04-03T02:00:05;4.35;;;3.20;;
44116;SDS011;29781;49.480;8.512;2023-04-03T02:02:32;4.35;;;3.03;;
44116;SDS011;29781;49.480;8.512;2023-04-03T02:04:58;4.38;;;3.03;;
44116;SDS011;29781;49.480;8.512;2023-04-03T02:07:23;6.43;;;3.42;;
44116;SDS011;29781;49.480;8.512;2023-04-03T02:09:49;4.85;;;3.13;;
44116;SDS011;29781;49.480;8.512;2023-04-03T02:12:15;4.47;;;3.28;;
44116;SDS011;29781;49.480;8.512;2023-04-03T02:14:40;4.38;;;3.55;;
44116;SDS011;29781;49.480;8.512;2023-04-03T02:17:06;5.97;;;3.28;;
44116;SDS011;29781;49.480;8.512;2023-04-03T02:19:33;5.18;;;3.60;;
44116;SDS011;29781;49.480;8.512;2023-04-03T02:22:00;5.45;;;3.60;;
44116;SDS011;29781;49.480;8.512;2023-04-03T02:24:26;5.15;;;3.60;;
44116;SDS011;29781;49.480;8.512;2023-04-03T02:26:52;4.28;;;3.22;;
44116;SDS011;29781;49.480;8.512;2023-04-03T02:29:18;4.18;;;3.78;;
44116;SDS011;29781;49.480;8.512;2023-04-03T02:31:43;6.47;;;3.85;;
44116;SDS011;29781;49.480;8.512;2023-04-03T02:34:09;5.45;;;3.40;;
44116;SDS011;29781;49.480;8.512;2023-04-03T02:36:35;5.63;;;3.67;;
44116;SDS011;29781;49.480;8.512;2023-04-03T02:39:00;5.53;;;4.05;;
44116;SDS011;29781;49.480;8.512;2023-04-03T02:41:26;4.13;;;3.58;;
44116;SDS011;29781;49.480;8.512;2023-04-03T02:43:58;5.82;;;3.55;;
44116;SDS011;29781;49.480;8.512;2023-04-03T02:46:24;6.22;;;3.53;;
44116;SDS011;29781;49.480;8.512;2023-04-03T02:48:49;4.80;;;3.88;;
44116;SDS011;29781;49.480;8.512;2023-04-03T02:51:15;6.78;;;3.70;;
44116;SDS011;29781;49.480;8.512;2023-04-03T02:53:41;4.13;;;3.28;;
44116;SDS011;29781;49.480;8.512;2023-04-03T02:56:06;4.57;;;3.53;;
44116;SDS011;29781;49.480;8.512;2023-04-03T02:58:32;4.32;;;3.80;;
44116;SDS011;29781;49.480;8.512;2023-04-03T03:00:57;8.85;;;5.95;;
44116;SDS011;29781;49.480;8.512;2023-04-03T03:03:23;6.38;;;4.20;;
44116;SDS011;29781;49.480;8.512;2023-04-03T03:05:48;4.53;;;3.95;;
44116;SDS011;29781;49.480;8.512;2023-04-03T03:08:14;5.65;;;4.18;;
44116;SDS011;29781;49.480;8.512;2023-04-03T03:10:39;4.80;;;4.03;;
44116;SDS011;29781;49.480;8.512;2023-04-03T03:13:05;7.18;;;3.72;;
44116;SDS011;29781;49.480;8.512;2023-04-03T03:15:30;5.28;;;4.05;;
44116;SDS011;29781;49.480;8.512;2023-04-03T03:17:56;4.30;;;3.88;;
44116;SDS011;29781;49.480;8.512;2023-04-03T03:20:21;4.68;;;3.90;;
44116;SDS011;29781;49.480;8.512;2023-04-03T03:22:47;6.88;;;3.90;;
44116;SDS011;29781;49.480;8.512;2023-04-03T03:25:12;5.55;;;4.43;;
44116;SDS011;29781;49.480;8.512;2023-04-03T03:27:38;4.38;;;3.95;;
44116;SDS011;29781;49.480;8.512;2023-04-03T03:30:04;5.25;;;4.25;;
44116;SDS011;29781;49.480;8.512;2023-04-03T03:32:30;4.50;;;4.05;;
44116;SDS011;29781;49.480;8.512;2023-04-03T03:34:56;4.32;;;3.90;;
44116;SDS011;29781;49.480;8.512;2023-04-03T03:37:21;5.35;;;4.45;;
44116;SDS011;29781;49.480;8.512;2023-04-03T03:39:47;4.75;;;4.25;;
44116;SDS011;29781;49.480;8.512;2023-04-03T03:42:12;8.90;;;4.40;;
44116;SDS011;29781;49.480;8.512;2023-04-03T03:44:37;5.47;;;4.28;;
44116;SDS011;29781;49.480;8.512;2023-04-03T03:47:03;5.03;;;3.95;;
44116;SDS011;29781;49.480;8.512;2023-04-03T03:49:30;5.47;;;4.03;;
44116;SDS011;29781;49.480;8.512;2023-04-03T03:51:56;6.10;;;4.00;;
44116;SDS011;29781;49.480;8.512;2023-04-03T03:54:21;5.40;;;4.28;;
44116;SDS011;29781;49.480;8.512;2023-04-03T03:56:47;4.63;;;3.63;;
44116;SDS011;29781;49.480;8.512;2023-04-03T03:59:12;7.95;;;3.97;;
44116;SDS011;29781;49.480;8.512;2023-04-03T04:01:38;5.00;;;3.92;;
44116;SDS011;29781;49.480;8.512;2023-04-03T04:04:04;5.43;;;4.32;;
44116;SDS011;29781;49.480;8.512;2023-04-03T04:06:30;4.47;;;3.97;;
44116;SDS011;29781;49.480;8.512;2023-04-03T04:08:55;7.25;;;4.80;;
44116;SDS011;29781;49.480;8.512;2023-04-03T04:11:21;6.85;;;4.70;;
44116;SDS011;29781;49.480;8.512;2023-04-03T04:13:47;5.18;;;4.03;;
44116;SDS011;29781;49.480;8.512;2023-04-03T04:16:12;5.32;;;3.88;;
44116;SDS011;29781;49.480;8.512;2023-04-03T04:18:38;5.88;;;4.35;;
44116;SDS011;29781;49.480;8.512;2023-04-03T04:21:03;7.45;;;4.38;;
44116;SDS011;29781;49.480;8.512;2023-04-03T04:23:29;8.30;;;4.40;;
44116;SDS011;29781;49.480;8.512;2023-04-03T04:25:54;5.22;;;3.78;;
44116;SDS011;29781;49.480;8.512;2023-04-03T04:28:20;6.50;;;4.43;;
44116;SDS011;29781;49.480;8.512;2023-04-03T04:30:45;4.80;;;4.25;;
44116;SDS011;29781;49.480;8.512;2023-04-03T04:33:11;6.03;;;4.22;;
44116;SDS011;29781;49.480;8.512;2023-04-03T04:35:38;4.93;;;4.07;;
44116;SDS011;29781;49.480;8.512;2023-04-03T04:38:04;8.40;;;3.90;;
44116;SDS011;29781;49.480;8.512;2023-04-03T04:40:30;6.72;;;5.13;;
44116;SDS011;29781;49.480;8.512;2023-04-03T04:42:56;4.10;;;3.70;;
44116;SDS011;29781;49.480;8.512;2023-04-03T04:45:21;4.85;;;4.35;;
44116;SDS011;29781;49.480;8.512;2023-04-03T04:47:47;5.72;;;4.03;;
44116;SDS011;29781;49.480;8.512;2023-04-03T04:50:12;6.65;;;4.22;;
44116;SDS011;29781;49.480;8.512;2023-04-03T04:52:38;8.00;;;4.07;;
44116;SDS011;29781;49.480;8.512;2023-04-03T04:55:04;5.00;;;4.05;;
44116;SDS011;29781;49.480;8.512;2023-04-03T04:57:30;7.85;;;4.20;;
44116;SDS011;29781;49.480;8.512;2023-04-03T04:59:55;4.85;;;4.07;;
44116;SDS011;29781;49.480;8.512;2023-04-03T05:02:21;6.93;;;4.55;;
44116;SDS011;29781;49.480;8.512;2023-04-03T05:04:46;7.10;;;4.20;;
44116;SDS011;29781;49.480;8.512;2023-04-03T05:07:12;6.03;;;4.20;;
44116;SDS011;29781;49.480;8.512;2023-04-03T05:09:37;6.43;;;4.38;;
44116;SDS011;29781;49.480;8.512;2023-04-03T05:12:03;6.32;;;4.32;;
44116;SDS011;29781;49.480;8.512;2023-04-03T05:14:29;4.20;;;3.80;;
44116;SDS011;29781;49.480;8.512;2023-04-03T05:16:55;9.93;;;4.20;;
44116;SDS011;29781;49.480;8.512;2023-04-03T05:19:20;9.50;;;4.63;;
44116;SDS011;29781;49.480;8.512;2023-04-03T05:21:46;7.60;;;4.53;;
44116;SDS011;29781;49.480;8.512;2023-04-03T05:24:12;7.65;;;4.55;;
44116;SDS011;29781;49.480;8.512;2023-04-03T05:26:39;5.60;;;4.65;;
44116;SDS011;29781;49.480;8.512;2023-04-03T05:29:04;4.72;;;4.22;;
44116;SDS011;29781;49.480;8.512;2023-04-03T05:31:30;6.10;;;4.57;;
44116;SDS011;29781;49.480;8.512;2023-04-03T05:33:55;7.45;;;4.57;;
44116;SDS011;29781;49.480;8.512;2023-04-03T05:36:21;7.60;;;4.70;;
44116;SDS011;29781;49.480;8.512;2023-04-03T05:38:47;5.95;;;5.07;;
44116;SDS011;29781;49.480;8.512;2023-04-03T05:41:13;9.38;;;5.78;;
44116;SDS011;29781;49.480;8.512;2023-04-03T05:43:40;8.40;;;4.97;;
44116;SDS011;29781;49.480;8.512;2023-04-03T05:46:16;12.55;;;5.00;;
44116;SDS011;29781;49.480;8.512;2023-04-03T05:48:43;11.15;;;4.97;;
44116;SDS011;29781;49.480;8.512;2023-04-03T05:51:19;5.18;;;4.65;;
44116;SDS011;29781;49.480;8.512;2023-04-03T05:53:48;7.15;;;4.82;;
44116;SDS011;29781;49.480;8.512;2023-04-03T05:56:17;8.15;;;4.82;;
44116;SDS011;29781;49.480;8.512;2023-04-03T05:58:42;10.75;;;5.00;;
44116;SDS011;29781;49.480;8.512;2023-04-03T06:01:08;7.57;;;4.88;;
44116;SDS011;29781;49.480;8.512;2023-04-03T06:03:33;10.65;;;5.10;;
44116;SDS011;29781;49.480;8.512;2023-04-03T06:06:00;7.43;;;5.30;;
44116;SDS011;29781;49.480;8.512;2023-04-03T06:08:28;5.70;;;4.60;;
44116;SDS011;29781;49.480;8.512;2023-04-03T06:10:53;8.48;;;5.25;;
44116;SDS011;29781;49.480;8.512;2023-04-03T06:13:19;8.85;;;4.47;;
44116;SDS011;29781;49.480;8.512;2023-04-03T06:15:45;6.68;;;5.50;;
44116;SDS011;29781;49.480;8.512;2023-04-03T06:18:11;6.95;;;5.05;;
44116;SDS011;29781;49.480;8.512;2023-04-03T06:20:37;7.05;;;5.10;;
44116;SDS011;29781;49.480;8.512;2023-04-03T06:23:02;9.15;;;5.35;;
44116;SDS011;29781;49.480;8.512;2023-04-03T06:25:28;7.68;;;5.55;;
44116;SDS011;29781;49.480;8.512;2023-04-03T06:27:53;7.10;;;5.20;;
44116;SDS011;29781;49.480;8.512;2023-04-03T06:30:20;6.38;;;5.47;;
44116;SDS011;29781;49.480;8.512;2023-04-03T06:32:46;5.93;;;5.32;;
44116;SDS011;29781;49.480;8.512;2023-04-03T06:35:11;8.73;;;5.28;;
44116;SDS011;29781;49.480;8.512;2023-04-03T06:37:37;6.22;;;5.28;;
44116;SDS011;29781;49.480;8.512;2023-04-03T06:40:03;9.48;;;4.88;;
44116;SDS011;29781;49.480;8.512;2023-04-03T06:42:29;6.70;;;5.07;;
44116;SDS011;29781;49.480;8.512;2023-04-03T06:44:55;7.45;;;5.75;;
44116;SDS011;29781;49.480;8.512;2023-04-03T06:47:20;8.15;;;5.45;;
44116;SDS011;29781;49.480;8.512;2023-04-03T06:49:46;6.10;;;4.57;;
44116;SDS011;29781;49.480;8.512;2023-04-03T06:52:11;8.27;;;5.30;;
44116;SDS011;29781;49.480;8.512;2023-04-03T06:54:38;8.05;;;4.75;;
44116;SDS011;29781;49.480;8.512;2023-04-03T06:57:04;6.65;;;4.68;;
44116;SDS011;29781;49.480;8.512;2023-04-03T06:59:29;6.68;;;4.90;;
44116;SDS011;29781;49.480;8.512;2023-04-03T07:01:55;5.80;;;4.60;;
44116;SDS011;29781;49.480;8.512;2023-04-03T07:04:20;6.07;;;4.30;;
44116;SDS011;29781;49.480;8.512;2023-04-03T07:06:46;5.65;;;4.50;;
44116;SDS011;29781;49.480;8.512;2023-04-03T07:09:13;6.18;;;4.50;;
44116;SDS011;29781;49.480;8.512;2023-04-03T07:11:39;7.90;;;4.78;;
44116;SDS011;29781;49.480;8.512;2023-04-03T07:14:05;7.75;;;4.97;;
44116;SDS011;29781;49.480;8.512;2023-04-03T07:16:32;6.22;;;4.60;;
44116;SDS011;29781;49.480;8.512;2023-04-03T07:18:58;10.45;;;4.45;;
44116;SDS011;29781;49.480;8.512;2023-04-03T07:21:24;8.48;;;4.85;;
44116;SDS011;29781;49.480;8.512;2023-04-03T07:23:50;5.57;;;4.30;;
44116;SDS011;29781;49.480;8.512;2023-04-03T07:26:16;7.80;;;4.82;;
44116;SDS011;29781;49.480;8.512;2023-04-03T07:28:41;7.43;;;4.57;;
44116;SDS011;29781;49.480;8.512;2023-04-03T07:31:11;4.82;;;4.10;;
44116;SDS011;29781;49.480;8.512;2023-04-03T07:33:38;7.28;;;4.60;;
44116;SDS011;29781;49.480;8.512;2023-04-03T07:36:04;7.30;;;4.90;;
44116;SDS011;29781;49.480;8.512;2023-04-03T07:38:32;5.97;;;3.90;;
44116;SDS011;29781;49.480;8.512;2023-04-03T07:40:57;9.20;;;4.28;;
44116;SDS011;29781;49.480;8.512;2023-04-03T07:43:23;8.48;;;4.80;;
44116;SDS011;29781;49.480;8.512;2023-04-03T07:45:50;5.53;;;4.13;;
44116;SDS011;29781;49.480;8.512;2023-04-03T07:48:17;5.70;;;3.45;;
44116;SDS011;29781;49.480;8.512;2023-04-03T07:50:43;6.13;;;3.80;;
44116;SDS011;29781;49.480;8.512;2023-04-03T07:53:09;5.03;;;3.53;;
44116;SDS011;29781;49.480;8.512;2023-04-03T07:55:34;5.22;;;3.58;;
44116;SDS011;29781;49.480;8.512;2023-04-03T07:58:05;4.53;;;3.10;;
44116;SDS011;29781;49.480;8.512;2023-04-03T08:00:31;7.13;;;3.53;;
44116;SDS011;29781;49.480;8.512;2023-04-03T08:02:56;3.42;;;3.13;;
44116;SDS011;29781;49.480;8.512;2023-04-03T08:05:22;7.57;;;3.80;;
44116;SDS011;29781;49.480;8.512;2023-04-03T08:07:47;5.65;;;3.85;;
44116;SDS011;29781;49.480;8.512;2023-04-03T08:10:14;5.47;;;3.55;;
44116;SDS011;29781;49.480;8.512;2023-04-03T08:12:40;7.25;;;3.28;;
44116;SDS011;29781;49.480;8.512;2023-04-03T08:15:06;4.68;;;3.03;;
44116;SDS011;29781;49.480;8.512;2023-04-03T08:17:33;7.32;;;2.85;;
44116;SDS011;29781;49.480;8.512;2023-04-03T08:19:59;5.85;;;3.05;;
44116;SDS011;29781;49.480;8.512;2023-04-03T08:22:25;4.93;;;2.53;;
44116;SDS011;29781;49.480;8.512;2023-04-03T08:24:53;4.22;;;2.38;;
44116;SDS011;29781;49.480;8.512;2023-04-03T08:27:18;4.93;;;2.30;;
44116;SDS011;29781;49.480;8.512;2023-04-03T08:29:44;6.75;;;2.60;;
44116;SDS011;29781;49.480;8.512;2023-04-03T08:32:09;3.92;;;2.33;;
44116;SDS011;29781;49.480;8.512;2023-04-03T08:34:35;4.97;;;2.30;;
44116;SDS011;29781;49.480;8.512;2023-04-03T08:37:01;6.82;;;2.53;;
44116;SDS011;29781;49.480;8.512;2023-04-03T08:39:27;4.50;;;2.40;;
44116;SDS011;29781;49.480;8.512;2023-04-03T08:41:54;4.65;;;2.10;;
44116;SDS011;29781;49.480;8.512;2023-04-03T08:44:37;6.93;;;2.70;;
44116;SDS011;29781;49.480;8.512;2023-04-03T08:47:27;3.42;;;1.90;;
44116;SDS011;29781;49.480;8.512;2023-04-03T08:50:02;3.00;;;2.40;;
44116;SDS011;29781;49.480;8.512;2023-04-03T08:52:50;6.15;;;2.33;;
44116;SDS011;29781;49.480;8.512;2023-04-03T08:55:24;2.85;;;1.90;;
44116;SDS011;29781;49.480;8.512;2023-04-03T08:58:05;3.17;;;1.88;;
44116;SDS011;29781;49.480;8.512;2023-04-03T09:00:37;3.30;;;1.85;;
44116;SDS011;29781;49.480;8.512;2023-04-03T09:03:11;3.70;;;2.00;;
44116;SDS011;29781;49.480;8.512;2023-04-03T09:05:45;3.65;;;2.20;;
44116;SDS011;29781;49.480;8.512;2023-04-03T09:08:31;3.83;;;1.85;;
44116;SDS011;29781;49.480;8.512;2023-04-03T09:11:06;4.22;;;1.85;;
44116;SDS011;29781;49.480;8.512;2023-04-03T09:16:25;10.68;;;1.60;;
44116;SDS011;29781;49.480;8.512;2023-04-03T09:19:15;5.78;;;1.67;;
44116;SDS011;29781;49.480;8.512;2023-04-03T09:21:46;4.60;;;1.55;;
44116;SDS011;29781;49.480;8.512;2023-04-03T09:24:12;2.20;;;1.77;;
44116;SDS011;29781;49.480;8.512;2023-04-03T09:26:42;3.10;;;1.58;;
44116;SDS011;29781;49.480;8.512;2023-04-03T09:29:21;4.38;;;2.15;;
44116;SDS011;29781;49.480;8.512;2023-04-03T09:31:50;2.42;;;1.48;;
44116;SDS011;29781;49.480;8.512;2023-04-03T09:34:23;3.30;;;1.25;;
44116;SDS011;29781;49.480;8.512;2023-04-03T09:36:56;3.63;;;1.73;;
44116;SDS011;29781;49.480;8.512;2023-04-03T09:39:29;3.53;;;1.73;;
44116;SDS011;29781;49.480;8.512;2023-04-03T09:42:02;1.92;;;1.50;;
44116;SDS011;29781;49.480;8.512;2023-04-03T09:44:31;3.00;;;1.55;;
44116;SDS011;29781;49.480;8.512;2023-04-03T09:46:59;2.80;;;1.50;;
44116;SDS011;29781;49.480;8.512;2023-04-03T09:49:42;2.13;;;1.77;;
44116;SDS011;29781;49.480;8.512;2023-04-03T09:52:22;1.27;;;1.00;;
44116;SDS011;29781;49.480;8.512;2023-04-03T09:54:50;1.73;;;1.35;;
44116;SDS011;29781;49.480;8.512;2023-04-03T09:57:15;2.78;;;1.40;;
44116;SDS011;29781;49.480;8.512;2023-04-03T10:00:01;3.25;;;1.70;;
44116;SDS011;29781;49.480;8.512;2023-04-03T10:02:49;3.25;;;1.60;;
44116;SDS011;29781;49.480;8.512;2023-04-03T10:10:43;4.55;;;1.52;;
44116;SDS011;29781;49.480;8.512;2023-04-03T10:13:11;2.53;;;1.58;;
44116;SDS011;29781;49.480;8.512;2023-04-03T10:15:43;2.35;;;1.52;;
44116;SDS011;29781;49.480;8.512;2023-04-03T10:23:44;2.83;;;1.30;;
44116;SDS011;29781;49.480;8.512;2023-04-03T10:26:25;1.98;;;1.20;;
44116;SDS011;29781;49.480;8.512;2023-04-03T10:29:40;4.35;;;1.20;;
44116;SDS011;29781;49.480;8.512;2023-04-03T10:32:11;1.60;;;1.35;;
44116;SDS011;29781;49.480;8.512;2023-04-03T10:37:53;2.97;;;1.40;;
44116;SDS011;29781;49.480;8.512;2023-04-03T10:43:04;2.35;;;1.00;;
44116;SDS011;29781;49.480;8.512;2023-04-03T10:46:00;3.80;;;1.13;;
44116;SDS011;29781;49.480;8.512;2023-04-03T10:48:43;3.22;;;1.50;;
44116;SDS011;29781;49.480;8.512;2023-04-03T10:54:46;1.52;;;1.20;;
44116;SDS011;29781;49.480;8.512;2023-04-03T10:57:21;4.78;;;1.38;;
44116;SDS011;29781;49.480;8.512;2023-04-03T10:59:49;4.95;;;1.60;;
44116;SDS011;29781;49.480;8.512;2023-04-03T11:02:29;2.47;;;1.30;;
44116;SDS011;29781;49.480;8.512;2023-04-03T11:05:07;1.55;;;1.42;;
44116;SDS011;29781;49.480;8.512;2023-04-03T11:07:59;4.95;;;1.92;;
44116;SDS011;29781;49.480;8.512;2023-04-03T11:10:44;1.85;;;1.30;;
44116;SDS011;29781;49.480;8.512;2023-04-03T11:15:48;2.13;;;1.33;;
44116;SDS011;29781;49.480;8.512;2023-04-03T11:18:19;2.90;;;1.40;;
44116;SDS011;29781;49.480;8.512;2023-04-03T11:21:01;4.70;;;1.50;;
44116;SDS011;29781;49.480;8.512;2023-04-03T11:23:33;2.17;;;1.50;;
44116;SDS011;29781;49.480;8.512;2023-04-03T11:26:06;2.97;;;1.80;;
44116;SDS011;29781;49.480;8.512;2023-04-03T11:28:35;3.90;;;1.90;;
44116;SDS011;29781;49.480;8.512;2023-04-03T11:34:05;2.75;;;1.70;;
44116;SDS011;29781;49.480;8.512;2023-04-03T11:36:53;2.58;;;1.65;;
44116;SDS011;29781;49.480;8.512;2023-04-03T11:39:31;2.10;;;1.40;;
44116;SDS011;29781;49.480;8.512;2023-04-03T11:42:15;3.88;;;1.60;;
44116;SDS011;29781;49.480;8.512;2023-04-03T11:44:50;4.88;;;1.45;;
44116;SDS011;29781;49.480;8.512;2023-04-03T12:05:55;2.95;;;1.70;;
44116;SDS011;29781;49.480;8.512;2023-04-03T12:13:40;3.10;;;1.58;;
44116;SDS011;29781;49.480;8.512;2023-04-03T12:16:28;4.65;;;2.08;;
44116;SDS011;29781;49.480;8.512;2023-04-03T12:27:03;2.80;;;1.60;;
44116;SDS011;29781;49.480;8.512;2023-04-03T12:40:45;2.25;;;1.70;;
44116;SDS011;29781;49.480;8.512;2023-04-03T12:48:37;5.13;;;1.63;;
44116;SDS011;29781;49.480;8.512;2023-04-03T12:51:18;4.60;;;1.60;;
44116;SDS011;29781;49.480;8.512;2023-04-03T12:53:56;4.28;;;1.50;;
44116;SDS011;29781;49.480;8.512;2023-04-03T12:58:54;4.10;;;1.50;;
44116;SDS011;29781;49.480;8.512;2023-04-03T13:01:23;2.83;;;1.67;;
44116;SDS011;29781;49.480;8.512;2023-04-03T13:03:55;3.35;;;1.98;;
44116;SDS011;29781;49.480;8.512;2023-04-03T13:06:27;1.90;;;1.70;;
44116;SDS011;29781;49.480;8.512;2023-04-03T13:08:57;3.03;;;1.83;;
44116;SDS011;29781;49.480;8.512;2023-04-03T13:11:26;2.83;;;1.88;;
44116;SDS011;29781;49.480;8.512;2023-04-03T13:13:59;2.63;;;1.80;;
44116;SDS011;29781;49.480;8.512;2023-04-03T13:16:29;5.30;;;1.60;;
44116;SDS011;29781;49.480;8.512;2023-04-03T13:18:56;3.28;;;1.88;;
44116;SDS011;29781;49.480;8.512;2023-04-03T13:21:26;2.70;;;1.77;;
44116;SDS011;29781;49.480;8.512;2023-04-03T13:23:57;2.92;;;1.85;;
44116;SDS011;29781;49.480;8.512;2023-04-03T13:26:26;2.22;;;1.80;;
44116;SDS011;29781;49.480;8.512;2023-04-03T13:28:54;2.45;;;1.90;;
44116;SDS011;29781;49.480;8.512;2023-04-03T13:33:56;11.60;;;2.28;;
44116;SDS011;29781;49.480;8.512;2023-04-03T13:36:46;2.78;;;2.00;;
44116;SDS011;29781;49.480;8.512;2023-04-03T13:41:52;2.53;;;1.50;;
44116;SDS011;29781;49.480;8.512;2023-04-03T13:52:03;8.57;;;2.25;;
44116;SDS011;29781;49.480;8.512;2023-04-03T13:54:52;3.83;;;2.40;;
44116;SDS011;29781;49.480;8.512;2023-04-03T13:57:24;4.35;;;2.20;;
44116;SDS011;29781;49.480;8.512;2023-04-03T13:59:49;3.63;;;2.10;;
44116;SDS011;29781;49.480;8.512;2023-04-03T14:02:38;3.13;;;2.20;;
44116;SDS011;29781;49.480;8.512;2023-04-03T14:05:04;5.82;;;1.77;;
44116;SDS011;29781;49.480;8.512;2023-04-03T14:07:33;2.90;;;2.05;;
44116;SDS011;29781;49.480;8.512;2023-04-03T14:09:59;2.78;;;1.85;;
44116;SDS011;29781;49.480;8.512;2023-04-03T14:12:29;4.00;;;1.92;;
44116;SDS011;29781;49.480;8.512;2023-04-03T14:14:59;2.78;;;1.98;;
44116;SDS011;29781;49.480;8.512;2023-04-03T14:17:26;3.75;;;1.77;;
44116;SDS011;29781;49.480;8.512;2023-04-03T14:19:52;2.40;;;1.70;;
44116;SDS011;29781;49.480;8.512;2023-04-03T14:22:23;3.03;;;2.00;;
44116;SDS011;29781;49.480;8.512;2023-04-03T14:24:51;2.85;;;1.98;;
44116;SDS011;29781;49.480;8.512;2023-04-03T14:29:43;2.85;;;1.83;;
44116;SDS011;29781;49.480;8.512;2023-04-03T14:32:11;3.25;;;2.22;;
44116;SDS011;29781;49.480;8.512;2023-04-03T14:34:38;2.70;;;1.92;;
44116;SDS011;29781;49.480;8.512;2023-04-03T14:37:04;5.03;;;1.77;;
44116;SDS011;29781;49.480;8.512;2023-04-03T14:39:30;4.40;;;2.10;;
44116;SDS011;29781;49.480;8.512;2023-04-03T14:41:56;3.63;;;2.05;;
44116;SDS011;29781;49.480;8.512;2023-04-03T14:44:21;2.33;;;1.90;;
44116;SDS011;29781;49.480;8.512;2023-04-03T14:46:48;1.88;;;1.77;;
44116;SDS011;29781;49.480;8.512;2023-04-03T14:49:14;4.63;;;2.17;;
44116;SDS011;29781;49.480;8.512;2023-04-03T14:51:42;4.88;;;2.05;;
44116;SDS011;29781;49.480;8.512;2023-04-03T14:54:16;3.40;;;2.05;;
44116;SDS011;29781;49.480;8.512;2023-04-03T14:56:46;3.22;;;1.90;;
44116;SDS011;29781;49.480;8.512;2023-04-03T14:59:13;3.38;;;1.70;;
44116;SDS011;29781;49.480;8.512;2023-04-03T15:01:39;5.38;;;2.00;;
44116;SDS011;29781;49.480;8.512;2023-04-03T15:04:10;2.95;;;2.00;;
44116;SDS011;29781;49.480;8.512;2023-04-03T15:06:40;4.05;;;2.15;;
44116;SDS011;29781;49.480;8.512;2023-04-03T15:09:10;4.57;;;2.08;;
44116;SDS011;29781;49.480;8.512;2023-04-03T15:11:47;3.00;;;1.90;;
44116;SDS011;29781;49.480;8.512;2023-04-03T15:14:13;5.72;;;1.90;;
44116;SDS011;29781;49.480;8.512;2023-04-03T15:16:39;4.03;;;1.80;;
44116;SDS011;29781;49.480;8.512;2023-04-03T15:19:04;2.58;;;1.67;;
44116;SDS011;29781;49.480;8.512;2023-04-03T15:21:30;3.65;;;1.80;;
44116;SDS011;29781;49.480;8.512;2023-04-03T15:23:56;2.50;;;1.70;;
44116;SDS011;29781;49.480;8.512;2023-04-03T15:26:21;4.10;;;1.83;;
44116;SDS011;29781;49.480;8.512;2023-04-03T15:28:47;2.97;;;1.83;;
44116;SDS011;29781;49.480;8.512;2023-04-03T15:31:12;4.22;;;1.98;;
44116;SDS011;29781;49.480;8.512;2023-04-03T15:33:38;3.08;;;2.10;;
44116;SDS011;29781;49.480;8.512;2023-04-03T15:36:04;1.77;;;1.67;;
44116;SDS011;29781;49.480;8.512;2023-04-03T15:38:30;3.80;;;1.63;;
44116;SDS011;29781;49.480;8.512;2023-04-03T15:40:56;4.10;;;1.60;;
44116;SDS011;29781;49.480;8.512;2023-04-03T15:43:22;3.78;;;1.70;;
44116;SDS011;29781;49.480;8.512;2023-04-03T15:45:48;3.38;;;1.60;;
44116;SDS011;29781;49.480;8.512;2023-04-03T15:48:15;2.47;;;1.45;;
44116;SDS011;29781;49.480;8.512;2023-04-03T15:50:42;1.65;;;1.30;;
44116;SDS011;29781;49.480;8.512;2023-04-03T15:53:08;2.58;;;1.50;;
44116;SDS011;29781;49.480;8.512;2023-04-03T15:55:34;1.85;;;1.40;;
44116;SDS011;29781;49.480;8.512;2023-04-03T15:58:01;2.22;;;1.50;;
44116;SDS011;29781;49.480;8.512;2023-04-03T16:00:27;3.17;;;1.52;;
44116;SDS011;29781;49.480;8.512;2023-04-03T16:03:14;1.73;;;1.55;;
44116;SDS011;29781;49.480;8.512;2023-04-03T16:05:42;3.13;;;1.50;;
44116;SDS011;29781;49.480;8.512;2023-04-03T16:08:07;6.50;;;1.77;;
44116;SDS011;29781;49.480;8.512;2023-04-03T16:10:37;2.67;;;1.58;;
44116;SDS011;29781;49.480;8.512;2023-04-03T16:13:04;2.95;;;1.60;;
44116;SDS011;29781;49.480;8.512;2023-04-03T16:15:30;2.55;;;1.27;;
44116;SDS011;29781;49.480;8.512;2023-04-03T16:17:57;1.77;;;1.38;;
44116;SDS011;29781;49.480;8.512;2023-04-03T16:20:24;2.38;;;1.50;;
44116;SDS011;29781;49.480;8.512;2023-04-03T16:22:49;4.47;;;1.88;;
44116;SDS011;29781;49.480;8.512;2023-04-03T16:25:15;2.15;;;1.77;;
44116;SDS011;29781;49.480;8.512;2023-04-03T16:27:44;2.42;;;1.65;;
44116;SDS011;29781;49.480;8.512;2023-04-03T16:30:10;1.67;;;1.50;;
44116;SDS011;29781;49.480;8.512;2023-04-03T16:32:36;3.53;;;1.58;;
44116;SDS011;29781;49.480;8.512;2023-04-03T16:35:04;1.23;;;1.10;;
44116;SDS011;29781;49.480;8.512;2023-04-03T16:37:30;1.63;;;1.33;;
44116;SDS011;29781;49.480;8.512;2023-04-03T16:39:55;3.58;;;1.50;;
44116;SDS011;29781;49.480;8.512;2023-04-03T16:42:22;1.38;;;1.25;;